createdAt,value
2023-01-15T00:00:18.836Z,1.72
2023-01-15T00:03:21.682Z,1.45
2023-01-15T00:06:25.861Z,1.58
2023-01-15T00:09:28.800Z,1.62
2023-01-15T00:12:31.019Z,1.62
2023-01-15T00:15:33.539Z,1.51
2023-01-15T00:18:35.777Z,1.40
2023-01-15T00:21:38.603Z,1.36
2023-01-15T00:25:00.147Z,1.41
2023-01-15T00:28:06.763Z,1.51
2023-01-15T00:31:09.018Z,1.33
2023-01-15T00:34:12.219Z,1.39
2023-01-15T00:37:14.423Z,1.49
2023-01-15T00:40:20.436Z,1.48
2023-01-15T00:43:22.838Z,1.40
2023-01-15T00:46:25.412Z,1.23
2023-01-15T00:49:28.628Z,1.23
2023-01-15T00:52:31.587Z,1.28
2023-01-15T00:55:34.166Z,1.40
2023-01-15T00:58:36.737Z,1.48
2023-01-15T01:01:40.311Z,1.38
2023-01-15T01:04:43.121Z,1.39
2023-01-15T01:07:45.348Z,1.43
2023-01-15T01:10:47.944Z,1.45
2023-01-15T01:13:50.409Z,1.40
2023-01-15T01:16:53.237Z,1.49
2023-01-15T01:19:55.441Z,1.37
2023-01-15T01:22:58.247Z,1.34
2023-01-15T01:26:00.809Z,1.38
2023-01-15T01:29:04.219Z,1.21
2023-01-15T01:32:08.231Z,1.26
2023-01-15T01:35:11.509Z,1.12
2023-01-15T01:38:13.780Z,1.19
2023-01-15T01:41:17.798Z,1.22
2023-01-15T01:44:32.496Z,1.28
2023-01-15T01:47:36.063Z,1.18
2023-01-15T01:50:40.303Z,1.13
2023-01-15T01:53:44.095Z,1.08
2023-01-15T01:56:49.481Z,1.01
2023-01-15T01:59:52.948Z,1.16
2023-01-15T02:02:55.280Z,1.22
2023-01-15T02:06:01.624Z,1.10
2023-01-15T02:09:04.749Z,1.01
2023-01-15T02:12:17.647Z,1.09
2023-01-15T02:16:12.877Z,0.87
2023-01-15T02:19:49.839Z,1.07
2023-01-15T02:23:05.864Z,0.83
2023-01-15T02:26:29.490Z,0.76
2023-01-15T02:29:41.341Z,0.86
2023-01-15T02:32:58.862Z,0.95
2023-01-15T02:36:01.831Z,0.89
2023-01-15T02:39:09.616Z,0.81
2023-01-15T02:42:13.055Z,0.68
2023-01-15T02:45:27.028Z,0.87
2023-01-15T02:48:36.260Z,0.82
2023-01-15T02:52:02.603Z,0.72
2023-01-15T02:55:18.111Z,0.56
2023-01-15T02:58:26.162Z,0.59
2023-01-15T03:02:01.655Z,0.77
2023-01-15T03:05:31.197Z,0.69
2023-01-15T03:08:33.851Z,0.78
2023-01-15T03:11:42.230Z,0.72
2023-01-15T03:14:56.690Z,0.70
2023-01-15T03:18:01.067Z,0.63
2023-01-15T03:21:10.139Z,0.66
2023-01-15T03:24:14.727Z,0.67
2023-01-15T03:27:19.908Z,0.63
2023-01-15T03:30:23.479Z,0.63
2023-01-15T03:33:28.001Z,0.67
2023-01-15T03:36:31.831Z,0.68
2023-01-15T03:39:35.924Z,0.60
2023-01-15T03:43:23.390Z,0.65
2023-01-15T03:46:51.217Z,0.59
2023-01-15T03:49:53.745Z,0.60
2023-01-15T03:53:09.404Z,0.63
2023-01-15T03:56:30.580Z,0.71
2023-01-15T03:59:37.856Z,0.65
2023-01-15T04:02:42.273Z,0.55
2023-01-15T04:05:46.402Z,0.71
2023-01-15T04:08:49.349Z,0.68
2023-01-15T04:11:52.161Z,0.84
2023-01-15T04:14:54.849Z,0.85
2023-01-15T04:17:57.593Z,0.83
2023-01-15T04:21:00.731Z,0.93
2023-01-15T04:24:04.716Z,1.02
2023-01-15T04:27:06.921Z,0.98
2023-01-15T04:30:10.293Z,1.00
2023-01-15T04:33:12.470Z,0.98
2023-01-15T04:36:15.023Z,1.04
2023-01-15T04:39:17.355Z,1.12
2023-01-15T04:42:38.740Z,1.12
2023-01-15T04:45:40.996Z,1.12
2023-01-15T04:48:43.527Z,1.13
2023-01-15T04:51:46.797Z,1.26
2023-01-15T04:54:49.355Z,1.25
2023-01-15T04:57:51.615Z,1.24
2023-01-15T05:00:54.195Z,1.13
2023-01-15T05:03:58.272Z,1.06
2023-01-15T05:07:05.036Z,1.16
2023-01-15T05:10:08.432Z,1.25
2023-01-15T05:13:11.182Z,1.14
2023-01-15T05:16:20.535Z,1.13
2023-01-15T05:19:23.410Z,1.17
2023-01-15T05:22:25.918Z,1.13
2023-01-15T05:25:28.534Z,1.13
2023-01-15T05:28:30.964Z,0.98
2023-01-15T05:31:34.050Z,1.14
2023-01-15T05:34:36.589Z,1.07
2023-01-15T05:37:39.343Z,1.20
2023-01-15T05:40:41.499Z,1.35
2023-01-15T05:43:44.103Z,1.29
2023-01-15T05:46:47.485Z,1.18
2023-01-15T05:49:50.281Z,1.35
2023-01-15T05:52:52.453Z,1.25
2023-01-15T05:55:55.149Z,1.28
2023-01-15T05:58:57.757Z,1.20
2023-01-15T06:02:00.999Z,1.37
2023-01-15T06:05:03.752Z,1.36
2023-01-15T06:08:05.982Z,1.35
2023-01-15T06:11:08.602Z,1.52
2023-01-15T06:14:12.694Z,1.55
2023-01-15T06:17:15.298Z,1.50
2023-01-15T06:20:17.944Z,1.53
2023-01-15T06:23:20.975Z,1.54
2023-01-15T06:26:23.462Z,1.61
2023-01-15T06:29:26.963Z,1.53
2023-01-15T06:32:29.290Z,1.65
2023-01-15T06:35:31.841Z,1.78
2023-01-15T06:38:34.829Z,1.71
2023-01-15T06:41:56.666Z,1.82
2023-01-15T06:45:17.521Z,1.73
2023-01-15T06:48:20.411Z,1.74
2023-01-15T06:51:22.861Z,1.90
2023-01-15T06:54:26.431Z,2.03
2023-01-15T06:57:29.033Z,2.05
2023-01-15T07:00:32.050Z,1.94
2023-01-15T07:03:34.442Z,2.05
2023-01-15T07:06:37.063Z,2.15
2023-01-15T07:09:39.312Z,2.12
2023-01-15T07:12:42.724Z,2.05
2023-01-15T07:15:45.094Z,2.25
2023-01-15T07:18:47.952Z,2.25
2023-01-15T07:21:50.442Z,2.39
2023-01-15T07:24:52.989Z,2.44
2023-01-15T07:27:55.260Z,2.48
2023-01-15T07:30:58.870Z,2.46
2023-01-15T07:34:01.533Z,2.52
2023-01-15T07:37:04.185Z,2.61
2023-01-15T07:40:06.810Z,2.63
2023-01-15T07:43:29.530Z,2.55
2023-01-15T07:46:50.488Z,2.66
2023-01-15T07:49:55.436Z,2.81
2023-01-15T07:52:57.623Z,2.80
2023-01-15T07:56:00.257Z,2.77
2023-01-15T07:59:02.496Z,2.82
2023-01-15T08:02:05.356Z,2.90
2023-01-15T08:05:09.521Z,2.75
2023-01-15T08:08:16.905Z,2.79
2023-01-15T08:11:38.223Z,2.92
2023-01-15T08:14:58.858Z,3.01
2023-01-15T08:18:01.366Z,3.18
2023-01-15T08:21:03.959Z,3.27
2023-01-15T08:24:06.867Z,3.29
2023-01-15T08:27:09.130Z,3.15
2023-01-15T08:30:15.336Z,3.35
2023-01-15T08:33:17.560Z,3.47
2023-01-15T08:36:20.630Z,3.33
2023-01-15T08:39:23.506Z,3.41
2023-01-15T08:42:26.809Z,3.61
2023-01-15T08:45:29.392Z,3.66
2023-01-15T08:48:32.965Z,3.78
2023-01-15T08:51:35.179Z,3.99
2023-01-15T08:54:37.757Z,4.01
2023-01-15T08:57:40.430Z,4.08
2023-01-15T09:00:43.937Z,3.95
2023-01-15T09:03:46.455Z,4.11
2023-01-15T09:06:49.852Z,4.19
2023-01-15T09:09:52.061Z,4.16
2023-01-15T09:12:54.622Z,4.31
2023-01-15T09:16:02.890Z,4.27
2023-01-15T09:19:06.871Z,4.39
2023-01-15T09:22:09.066Z,4.43
2023-01-15T09:25:11.793Z,4.45
2023-01-15T09:28:14.503Z,4.53
2023-01-15T09:31:17.228Z,4.77
2023-01-15T09:34:19.920Z,4.77
2023-01-15T09:37:22.594Z,4.55
2023-01-15T09:40:59.248Z,4.45
2023-01-15T09:44:50.999Z,4.38
2023-01-15T09:48:16.732Z,4.49
2023-01-15T09:51:39.339Z,4.64
2023-01-15T09:54:44.316Z,5.03
2023-01-15T09:57:51.657Z,5.33
2023-01-15T10:00:54.278Z,5.15
2023-01-15T10:04:11.505Z,5.18
2023-01-15T10:07:33.268Z,5.25
2023-01-15T10:11:01.079Z,5.52
2023-01-15T10:14:11.521Z,5.82
2023-01-15T10:17:32.029Z,6.02
2023-01-15T10:21:08.500Z,6.03
2023-01-15T10:24:23.632Z,6.08
2023-01-15T10:27:30.194Z,6.32
2023-01-15T10:30:47.135Z,6.31
2023-01-15T10:34:00.850Z,6.77
2023-01-15T10:37:09.482Z,6.38
2023-01-15T10:40:14.975Z,6.04
2023-01-15T10:43:25.476Z,6.22
2023-01-15T10:46:38.166Z,6.50
2023-01-15T10:49:42.712Z,6.34
2023-01-15T10:52:56.451Z,6.41
2023-01-15T10:56:19.909Z,6.81
2023-01-15T10:59:35.578Z,6.76
2023-01-15T11:02:40.326Z,6.83
2023-01-15T11:05:45.854Z,7.05
2023-01-15T11:09:09.341Z,7.18
2023-01-15T11:12:23.048Z,6.61
2023-01-15T11:15:45.591Z,6.46
2023-01-15T11:19:07.168Z,6.50
2023-01-15T11:22:14.788Z,6.45
2023-01-15T11:25:29.645Z,6.50
2023-01-15T11:28:41.491Z,6.41
2023-01-15T11:31:43.992Z,6.73
2023-01-15T11:34:59.623Z,6.72
2023-01-15T11:38:08.111Z,6.75
2023-01-15T11:41:47.488Z,6.71
2023-01-15T11:45:11.468Z,6.89
2023-01-15T11:48:36.937Z,7.00
2023-01-15T11:51:43.526Z,7.36
2023-01-15T11:54:53.609Z,7.73
2023-01-15T11:57:57.294Z,7.83
2023-01-15T12:01:01.095Z,8.40
2023-01-15T12:04:22.594Z,8.16
2023-01-15T12:07:27.126Z,7.84
2023-01-15T12:11:11.623Z,7.36
2023-01-15T12:14:39.789Z,7.60
2023-01-15T12:17:55.432Z,7.60
2023-01-15T12:21:35.651Z,7.06
2023-01-15T12:24:43.895Z,7.82
2023-01-15T12:28:17.607Z,7.64
2023-01-15T12:31:27.434Z,7.63
2023-01-15T12:34:45.965Z,7.84
2023-01-15T12:37:56.508Z,7.90
2023-01-15T12:41:13.155Z,7.61
2023-01-15T12:44:39.785Z,7.53
2023-01-15T12:47:44.794Z,7.69
2023-01-15T12:50:49.853Z,7.75
2023-01-15T12:54:07.355Z,7.90
2023-01-15T12:57:30.987Z,7.93
2023-01-15T13:00:39.318Z,8.04
2023-01-15T13:04:05.665Z,7.91
2023-01-15T13:07:24.229Z,7.74
2023-01-15T13:10:30.874Z,7.74
2023-01-15T13:13:39.686Z,7.97
2023-01-15T13:17:05.595Z,7.91
2023-01-15T13:20:40.033Z,7.83
2023-01-15T13:24:13.914Z,7.77
2023-01-15T13:27:47.341Z,8.00
2023-01-15T13:31:13.237Z,7.67
2023-01-15T13:34:56.623Z,7.66
2023-01-15T13:38:03.467Z,7.63
2023-01-15T13:41:08.257Z,7.84
2023-01-15T13:44:36.456Z,7.85
2023-01-15T13:47:39.481Z,7.66
2023-01-15T13:51:04.677Z,7.67
2023-01-15T13:54:16.150Z,7.55
2023-01-15T13:57:24.836Z,7.58
2023-01-15T14:00:28.694Z,7.46
2023-01-15T14:03:38.524Z,7.41
2023-01-15T14:06:45.953Z,7.46
2023-01-15T14:09:48.502Z,7.43
2023-01-15T14:13:21.988Z,7.28
2023-01-15T14:16:36.896Z,7.40
2023-01-15T14:19:51.261Z,7.44
2023-01-15T14:23:06.018Z,7.39
2023-01-15T14:26:13.199Z,7.25
2023-01-15T14:29:43.786Z,7.20
2023-01-15T14:32:56.032Z,7.13
2023-01-15T14:36:10.468Z,7.05
2023-01-15T14:39:45.171Z,7.11
2023-01-15T14:43:04.631Z,7.09
2023-01-15T14:46:24.357Z,7.13
2023-01-15T14:49:31.949Z,7.11
2023-01-15T14:52:35.101Z,7.05
2023-01-15T14:55:53.533Z,7.10
2023-01-15T14:58:55.921Z,6.93
2023-01-15T15:02:02.511Z,6.91
2023-01-15T15:05:12.699Z,6.96
2023-01-15T15:08:19.406Z,7.11
2023-01-15T15:11:47.676Z,6.99
2023-01-15T15:14:54.549Z,6.89
2023-01-15T15:17:56.775Z,6.79
2023-01-15T15:20:59.228Z,7.06
2023-01-15T15:24:24.845Z,7.00
2023-01-15T15:27:27.482Z,6.96
2023-01-15T15:30:33.644Z,7.09
2023-01-15T15:33:41.411Z,6.92
2023-01-15T15:36:45.982Z,7.01
2023-01-15T15:40:19.368Z,7.10
2023-01-15T15:43:46.486Z,7.09
2023-01-15T15:47:09.231Z,6.92
2023-01-15T15:50:41.003Z,6.89
2023-01-15T15:53:43.559Z,6.85
2023-01-15T15:56:54.596Z,7.00
2023-01-15T15:59:57.646Z,6.82
2023-01-15T16:03:17.429Z,6.84
2023-01-15T16:06:22.594Z,6.76
2023-01-15T16:09:25.040Z,6.73
2023-01-15T16:12:31.225Z,6.66
2023-01-15T16:15:39.219Z,6.71
2023-01-15T16:18:57.021Z,6.72
2023-01-15T16:21:59.343Z,6.72
2023-01-15T16:25:02.403Z,6.71
2023-01-15T16:28:05.259Z,6.64
2023-01-15T16:31:08.672Z,6.88
2023-01-15T16:34:20.921Z,6.75
2023-01-15T16:37:34.028Z,6.76
2023-01-15T16:40:39.834Z,6.77
2023-01-15T16:44:03.876Z,6.67
2023-01-15T16:47:06.846Z,6.75
2023-01-15T16:50:24.660Z,6.82
2023-01-15T16:53:36.033Z,6.72
2023-01-15T16:56:38.600Z,6.64
2023-01-15T16:59:44.018Z,6.60
2023-01-15T17:02:46.871Z,6.56
2023-01-15T17:05:52.954Z,6.53
2023-01-15T17:08:57.779Z,6.45
2023-01-15T17:12:06.471Z,6.46
2023-01-15T17:15:15.114Z,6.22
2023-01-15T17:18:26.783Z,6.06
2023-01-15T17:21:29.983Z,6.03
2023-01-15T17:24:32.193Z,6.04
2023-01-15T17:27:34.712Z,5.98
2023-01-15T17:30:37.031Z,5.77
2023-01-15T17:33:39.707Z,5.67
2023-01-15T17:36:41.916Z,5.63
2023-01-15T17:39:44.434Z,5.61
2023-01-15T17:42:47.265Z,5.56
2023-01-15T17:45:49.761Z,5.53
2023-01-15T17:48:52.243Z,5.46
2023-01-15T17:51:54.972Z,5.45
2023-01-15T17:55:18.333Z,5.40
2023-01-15T17:58:40.199Z,5.37
2023-01-15T18:02:04.285Z,5.49
2023-01-15T18:05:30.736Z,5.47
2023-01-15T18:08:33.945Z,5.44
2023-01-15T18:11:36.569Z,5.44
2023-01-15T18:14:38.852Z,5.43
2023-01-15T18:17:41.851Z,5.52
2023-01-15T18:20:44.585Z,5.55
2023-01-15T18:23:47.325Z,5.49
2023-01-15T18:26:51.956Z,5.50
2023-01-15T18:29:54.577Z,5.45
2023-01-15T18:32:56.751Z,5.40
2023-01-15T18:36:13.524Z,5.37
2023-01-15T18:39:15.788Z,5.29
2023-01-15T18:42:37.102Z,5.26
2023-01-15T18:45:57.580Z,5.20
2023-01-15T18:49:00.103Z,5.06
2023-01-15T18:52:21.175Z,5.00
2023-01-15T18:55:27.796Z,4.99
2023-01-15T18:58:30.142Z,5.01
2023-01-15T19:01:32.740Z,4.98
2023-01-15T19:04:35.168Z,4.98
2023-01-15T19:07:38.343Z,4.96
2023-01-15T19:10:40.675Z,4.95
2023-01-15T19:13:43.172Z,5.00
2023-01-15T19:17:04.510Z,4.92
2023-01-15T19:20:08.438Z,4.93
2023-01-15T19:23:10.753Z,4.93
2023-01-15T19:26:13.652Z,4.94
2023-01-15T19:29:15.861Z,4.94
2023-01-15T19:32:18.755Z,5.00
2023-01-15T19:35:21.048Z,4.97
2023-01-15T19:38:23.737Z,4.96
2023-01-15T19:41:44.561Z,4.93
2023-01-15T19:45:05.852Z,4.91
2023-01-15T19:48:31.634Z,4.91
2023-01-15T19:51:52.618Z,4.89
2023-01-15T19:54:57.949Z,4.87
2023-01-15T19:58:06.112Z,4.84
2023-01-15T20:01:15.094Z,4.82
2023-01-15T20:04:17.717Z,4.76
2023-01-15T20:07:20.318Z,4.76
2023-01-15T20:10:25.840Z,4.79
2023-01-15T20:13:46.741Z,4.81
2023-01-15T20:16:49.328Z,4.80
2023-01-15T20:19:51.557Z,4.78
2023-01-15T20:22:57.772Z,4.84
2023-01-15T20:26:05.748Z,4.82
2023-01-15T20:29:08.392Z,4.81
2023-01-15T20:32:10.948Z,4.85
2023-01-15T20:35:16.981Z,4.77
2023-01-15T20:38:19.323Z,4.75
2023-01-15T20:41:40.271Z,4.80
2023-01-15T20:44:54.717Z,4.72
2023-01-15T20:48:12.404Z,4.64
2023-01-15T20:51:14.695Z,4.65
2023-01-15T20:54:17.454Z,4.63
2023-01-15T20:57:19.773Z,4.67
2023-01-15T21:00:31.845Z,4.65
2023-01-15T21:03:34.938Z,4.62
2023-01-15T21:06:37.520Z,4.60
2023-01-15T21:09:39.696Z,4.59
2023-01-15T21:12:42.321Z,4.60
2023-01-15T21:15:44.501Z,4.54
2023-01-15T21:18:49.103Z,4.43
2023-01-15T21:21:51.358Z,4.47
2023-01-15T21:24:54.398Z,4.49
2023-01-15T21:27:56.884Z,4.46
2023-01-15T21:31:03.851Z,4.44
2023-01-15T21:34:06.760Z,4.41
2023-01-15T21:37:09.252Z,4.43
2023-01-15T21:40:11.922Z,4.45
2023-01-15T21:43:33.080Z,4.46
2023-01-15T21:46:35.261Z,4.45
2023-01-15T21:49:38.229Z,4.44
2023-01-15T21:52:40.427Z,4.45
2023-01-15T21:55:49.049Z,4.41
2023-01-15T21:58:51.285Z,4.48
2023-01-15T22:01:55.435Z,4.28
2023-01-15T22:04:58.004Z,4.24
2023-01-15T22:08:03.160Z,4.33
2023-01-15T22:11:10.089Z,4.35
2023-01-15T22:14:25.498Z,4.36
2023-01-15T22:17:28.040Z,4.35
2023-01-15T22:20:30.244Z,4.35
2023-01-15T22:23:34.451Z,4.26
2023-01-15T22:26:37.850Z,4.24
2023-01-15T22:29:41.088Z,4.11
2023-01-15T22:32:43.310Z,3.98
2023-01-15T22:35:56.392Z,3.89
2023-01-15T22:38:58.801Z,3.83
2023-01-15T22:42:20.119Z,3.78
2023-01-15T22:45:23.911Z,3.70
2023-01-15T22:48:26.415Z,3.66
2023-01-15T22:51:28.646Z,3.67
2023-01-15T22:54:31.220Z,3.67
2023-01-15T22:57:34.227Z,3.73
2023-01-15T23:00:36.900Z,3.80
2023-01-15T23:03:39.464Z,3.85
2023-01-15T23:06:42.277Z,3.88
2023-01-15T23:09:44.501Z,3.88
2023-01-15T23:12:47.231Z,3.95
2023-01-15T23:15:59.773Z,3.98
2023-01-15T23:19:03.814Z,4.04
2023-01-15T23:22:06.458Z,4.04
2023-01-15T23:25:09.454Z,4.03
2023-01-15T23:28:11.720Z,4.00
2023-01-15T23:31:14.356Z,3.93
2023-01-15T23:34:16.667Z,3.85
2023-01-15T23:37:19.321Z,3.93
2023-01-15T23:40:21.495Z,3.93
2023-01-15T23:43:42.949Z,3.95
2023-01-15T23:46:45.164Z,4.05
2023-01-15T23:49:47.970Z,4.08
2023-01-15T23:52:50.247Z,4.12
2023-01-15T23:55:53.047Z,4.16
2023-01-15T23:58:55.954Z,4.25
